createdAt,value
2023-05-13T00:00:00.340Z,55.46
2023-05-13T00:02:27.509Z,55.43
2023-05-13T00:04:54.649Z,55.69
2023-05-13T00:07:21.794Z,55.32
2023-05-13T00:09:48.825Z,55.53
2023-05-13T00:12:15.870Z,55.65
2023-05-13T00:14:42.866Z,55.80
2023-05-13T00:17:10.034Z,55.80
2023-05-13T00:19:37.103Z,55.80
2023-05-13T00:22:04.589Z,55.99
2023-05-13T00:24:31.633Z,56.02
2023-05-13T00:26:58.799Z,55.78
2023-05-13T00:29:26.060Z,56.34
2023-05-13T00:31:53.198Z,55.99
2023-05-13T00:34:20.436Z,56.22
2023-05-13T00:36:47.708Z,55.96
2023-05-13T00:39:14.741Z,55.93
2023-05-13T00:41:42.085Z,55.96
2023-05-13T00:44:09.138Z,55.89
2023-05-13T00:46:36.412Z,55.98
2023-05-13T00:49:04.986Z,56.07
2023-05-13T00:51:35.586Z,56.16
2023-05-13T00:54:02.616Z,56.36
2023-05-13T00:56:29.720Z,56.48
2023-05-13T00:58:57.094Z,56.60
2023-05-13T01:01:45.386Z,56.76
2023-05-13T01:04:41.925Z,56.75
2023-05-13T01:07:30.166Z,57.07
2023-05-13T01:10:25.358Z,57.26
2023-05-13T01:13:00.334Z,57.46
2023-05-13T01:15:28.362Z,57.30
2023-05-13T01:17:55.415Z,57.73
2023-05-13T01:20:24.665Z,57.68
2023-05-13T01:22:51.991Z,57.92
2023-05-13T01:25:19.343Z,57.90
2023-05-13T01:27:46.777Z,58.10
2023-05-13T01:30:16.925Z,58.21
2023-05-13T01:32:44.842Z,58.41
2023-05-13T01:35:12.744Z,58.31
2023-05-13T01:37:44.651Z,58.15
2023-05-13T01:40:28.180Z,57.84
2023-05-13T01:43:02.130Z,57.84
2023-05-13T01:45:30.675Z,57.95
2023-05-13T01:47:58.743Z,58.15
2023-05-13T01:50:30.716Z,58.01
2023-05-13T01:52:57.777Z,57.97
2023-05-13T01:55:25.243Z,58.08
2023-05-13T01:57:52.487Z,57.68
2023-05-13T02:00:20.371Z,57.70
2023-05-13T02:02:50.096Z,57.57
2023-05-13T02:05:17.476Z,57.69
2023-05-13T02:07:45.173Z,57.40
2023-05-13T02:10:12.768Z,57.40
2023-05-13T02:12:39.827Z,57.75
2023-05-13T02:15:07.687Z,57.24
2023-05-13T02:17:34.873Z,56.85
2023-05-13T02:20:03.922Z,57.05
2023-05-13T02:22:30.979Z,57.01
2023-05-13T02:24:58.797Z,57.23
2023-05-13T02:27:25.906Z,57.10
2023-05-13T02:29:53.077Z,57.35
2023-05-13T02:32:20.094Z,57.46
2023-05-13T02:34:47.170Z,57.54
2023-05-13T02:37:14.225Z,57.61
2023-05-13T02:39:49.979Z,57.73
2023-05-13T02:42:18.608Z,57.59
2023-05-13T02:44:45.970Z,57.36
2023-05-13T02:47:14.611Z,57.51
2023-05-13T02:49:41.893Z,57.28
2023-05-13T02:52:09.060Z,57.05
2023-05-13T02:54:37.609Z,57.14
2023-05-13T02:57:05.158Z,57.46
2023-05-13T02:59:32.228Z,57.51
2023-05-13T03:01:59.387Z,57.71
2023-05-13T03:04:26.661Z,57.43
2023-05-13T03:06:53.982Z,56.99
2023-05-13T03:09:21.299Z,56.92
2023-05-13T03:11:48.844Z,57.03
2023-05-13T03:14:16.150Z,57.01
2023-05-13T03:16:44.865Z,57.28
2023-05-13T03:19:14.872Z,57.14
2023-05-13T03:21:42.196Z,57.08
2023-05-13T03:24:12.657Z,57.22
2023-05-13T03:26:40.215Z,56.95
2023-05-13T03:29:07.732Z,57.06
2023-05-13T03:31:36.955Z,57.09
2023-05-13T03:34:05.662Z,57.37
2023-05-13T03:36:33.833Z,57.33
2023-05-13T03:39:01.524Z,56.92
2023-05-13T03:41:29.816Z,56.47
2023-05-13T03:43:59.241Z,56.46
2023-05-13T03:46:29.190Z,56.51
2023-05-13T03:48:57.465Z,56.49
2023-05-13T03:51:27.537Z,56.35
2023-05-13T03:53:54.843Z,56.13
2023-05-13T03:56:21.944Z,56.07
2023-05-13T03:58:49.146Z,56.33
2023-05-13T04:01:16.222Z,56.04
2023-05-13T04:03:46.284Z,55.98
2023-05-13T04:06:16.516Z,55.87
2023-05-13T04:08:47.038Z,55.49
2023-05-13T04:11:16.252Z,55.55
2023-05-13T04:13:45.938Z,55.48
2023-05-13T04:16:13.436Z,55.00
2023-05-13T04:18:41.946Z,54.95
2023-05-13T04:21:09.710Z,54.82
2023-05-13T04:23:36.839Z,54.72
2023-05-13T04:26:03.914Z,54.39
2023-05-13T04:28:31.698Z,54.24
2023-05-13T04:30:59.743Z,54.21
2023-05-13T04:33:27.369Z,53.70
2023-05-13T04:35:54.491Z,53.67
2023-05-13T04:38:22.111Z,53.55
2023-05-13T04:40:49.378Z,53.10
2023-05-13T04:43:22.622Z,53.01
2023-05-13T04:45:56.377Z,52.67
2023-05-13T04:48:23.525Z,52.90
2023-05-13T04:50:51.517Z,51.93
2023-05-13T04:53:19.236Z,51.41
2023-05-13T04:55:50.689Z,51.24
2023-05-13T04:58:17.860Z,50.86
2023-05-13T05:00:45.081Z,50.66
2023-05-13T05:03:12.972Z,49.56
2023-05-13T05:05:40.302Z,49.22
2023-05-13T05:08:08.807Z,48.96
2023-05-13T05:10:37.357Z,49.20
2023-05-13T05:13:05.267Z,48.48
2023-05-13T05:15:32.390Z,48.44
2023-05-13T05:18:01.554Z,48.13
2023-05-13T05:20:28.687Z,48.27
2023-05-13T05:22:59.754Z,47.83
2023-05-13T05:25:28.988Z,47.82
2023-05-13T05:27:56.969Z,47.72
2023-05-13T05:30:24.848Z,47.50
2023-05-13T05:33:00.714Z,46.92
2023-05-13T05:35:27.849Z,46.67
2023-05-13T05:37:56.626Z,45.84
2023-05-13T05:40:25.097Z,45.82
2023-05-13T05:42:52.279Z,45.45
2023-05-13T05:45:20.999Z,44.88
2023-05-13T05:47:48.255Z,44.71
2023-05-13T05:50:15.554Z,44.53
2023-05-13T05:52:42.667Z,44.22
2023-05-13T05:55:12.122Z,43.82
2023-05-13T05:57:39.218Z,43.13
2023-05-13T06:00:07.976Z,42.63
2023-05-13T06:02:42.844Z,41.85
2023-05-13T06:05:13.063Z,41.49
2023-05-13T06:07:41.504Z,41.24
2023-05-13T06:10:09.219Z,40.71
2023-05-13T06:12:36.520Z,40.50
2023-05-13T06:15:06.562Z,41.00
2023-05-13T06:17:33.710Z,40.92
2023-05-13T06:20:00.878Z,40.78
2023-05-13T06:22:27.991Z,40.51
2023-05-13T06:24:55.153Z,39.92
2023-05-13T06:27:22.362Z,40.06
2023-05-13T06:29:49.522Z,40.06
2023-05-13T06:32:16.886Z,40.08
2023-05-13T06:34:45.802Z,40.03
2023-05-13T06:37:16.669Z,39.38
2023-05-13T06:39:44.024Z,39.59
2023-05-13T06:42:13.073Z,39.04
2023-05-13T06:44:45.338Z,38.91
2023-05-13T06:47:16.053Z,39.04
2023-05-13T06:49:44.106Z,38.73
2023-05-13T06:52:11.670Z,38.71
2023-05-13T06:54:38.831Z,38.40
2023-05-13T06:57:07.370Z,38.07
2023-05-13T06:59:36.550Z,38.06
2023-05-13T07:02:04.513Z,37.73
2023-05-13T07:04:31.769Z,37.87
2023-05-13T07:06:58.832Z,37.67
2023-05-13T07:09:25.893Z,37.35
2023-05-13T07:11:52.987Z,37.11
2023-05-13T07:14:20.142Z,36.64
2023-05-13T07:16:47.434Z,36.88
2023-05-13T07:19:14.575Z,37.42
2023-05-13T07:21:41.709Z,37.67
2023-05-13T07:24:09.476Z,37.11
2023-05-13T07:26:36.595Z,36.92
2023-05-13T07:29:03.702Z,37.18
2023-05-13T07:31:31.075Z,36.82
2023-05-13T07:33:58.177Z,37.13
2023-05-13T07:36:25.426Z,36.85
2023-05-13T07:38:52.565Z,36.58
2023-05-13T07:41:19.793Z,36.48
2023-05-13T07:43:46.899Z,36.06
2023-05-13T07:46:14.048Z,36.18
2023-05-13T07:48:41.354Z,35.90
2023-05-13T07:51:08.665Z,35.75
2023-05-13T07:53:36.729Z,35.85
2023-05-13T07:56:04.276Z,35.68
2023-05-13T07:58:31.365Z,35.37
2023-05-13T08:00:58.565Z,35.07
2023-05-13T08:03:25.774Z,34.98
2023-05-13T08:05:52.889Z,34.81
2023-05-13T08:08:19.936Z,34.89
2023-05-13T08:10:47.021Z,34.70
2023-05-13T08:13:14.159Z,35.11
2023-05-13T08:15:41.706Z,35.25
2023-05-13T08:18:08.827Z,35.03
2023-05-13T08:20:35.988Z,35.60
2023-05-13T08:23:03.145Z,35.01
2023-05-13T08:25:30.190Z,35.25
2023-05-13T08:27:57.783Z,34.45
2023-05-13T08:30:24.876Z,34.41
2023-05-13T08:32:51.972Z,34.42
2023-05-13T08:35:19.258Z,33.77
2023-05-13T08:37:46.368Z,33.48
2023-05-13T08:40:13.691Z,33.37
2023-05-13T08:42:42.911Z,33.19
2023-05-13T08:45:11.522Z,33.13
2023-05-13T08:47:53.104Z,33.44
2023-05-13T08:50:21.664Z,34.09
2023-05-13T08:52:55.834Z,33.37
2023-05-13T08:55:24.359Z,33.17
2023-05-13T08:57:52.752Z,33.11
2023-05-13T09:00:21.583Z,32.81
2023-05-13T09:02:51.098Z,33.09
2023-05-13T09:05:18.726Z,32.81
2023-05-13T09:07:46.274Z,33.25
2023-05-13T09:10:13.437Z,32.93
2023-05-13T09:12:50.748Z,32.37
2023-05-13T09:15:24.352Z,31.65
2023-05-13T09:18:08.026Z,31.67
2023-05-13T09:20:36.414Z,31.18
2023-05-13T09:23:10.525Z,31.52
2023-05-13T09:25:39.042Z,31.05
2023-05-13T09:28:08.411Z,30.80
2023-05-13T09:30:38.686Z,29.86
2023-05-13T09:33:10.893Z,30.34
2023-05-13T09:35:43.440Z,30.22
2023-05-13T09:38:18.632Z,29.86
2023-05-13T09:40:55.549Z,30.17
2023-05-13T09:43:27.074Z,29.78
2023-05-13T09:46:12.361Z,29.54
2023-05-13T09:48:44.696Z,29.18
2023-05-13T09:51:12.225Z,28.98
2023-05-13T09:53:41.444Z,28.79
2023-05-13T09:56:10.654Z,29.39
2023-05-13T09:58:38.427Z,29.66
2023-05-13T10:01:05.797Z,29.17
2023-05-13T10:03:33.151Z,28.81
2023-05-13T10:06:03.368Z,29.35
2023-05-13T10:08:31.094Z,29.32
2023-05-13T10:10:59.153Z,29.50
2023-05-13T10:13:29.750Z,29.13
2023-05-13T10:15:57.499Z,29.42
2023-05-13T10:18:24.668Z,29.51
2023-05-13T10:20:55.137Z,29.21
2023-05-13T10:23:24.608Z,28.24
2023-05-13T10:25:54.936Z,27.79
2023-05-13T10:28:22.573Z,28.43
2023-05-13T10:30:53.076Z,28.32
2023-05-13T10:33:21.255Z,28.86
2023-05-13T10:36:16.455Z,29.41
2023-05-13T10:39:35.658Z,28.85
2023-05-13T10:42:38.353Z,28.10
2023-05-13T10:45:06.090Z,28.28
2023-05-13T10:47:33.992Z,28.03
2023-05-13T10:50:07.513Z,27.48
2023-05-13T10:52:48.076Z,27.14
2023-05-13T10:55:18.698Z,27.47
2023-05-13T10:58:11.106Z,27.10
2023-05-13T11:00:41.498Z,26.93
2023-05-13T11:03:13.653Z,26.94
2023-05-13T11:05:45.901Z,27.45
2023-05-13T11:08:36.938Z,28.29
2023-05-13T11:11:17.690Z,28.26
2023-05-13T11:13:45.159Z,29.18
2023-05-13T11:16:14.585Z,29.56
2023-05-13T11:18:42.072Z,29.45
2023-05-13T11:21:09.423Z,29.42
2023-05-13T11:24:07.849Z,29.46
2023-05-13T11:26:58.964Z,28.90
2023-05-13T11:29:37.365Z,28.72
2023-05-13T11:32:07.085Z,29.31
2023-05-13T11:34:34.974Z,28.72
2023-05-13T11:37:05.028Z,28.72
2023-05-13T11:39:33.155Z,28.72
2023-05-13T11:42:05.105Z,28.43
2023-05-13T11:44:34.648Z,28.36
2023-05-13T11:47:06.115Z,27.50
2023-05-13T11:49:45.583Z,27.84
2023-05-13T11:52:20.206Z,28.21
2023-05-13T11:54:54.204Z,27.64
2023-05-13T11:57:22.296Z,27.83
2023-05-13T12:00:04.904Z,27.71
2023-05-13T12:02:40.500Z,28.08
2023-05-13T12:05:11.289Z,28.68
2023-05-13T12:07:39.723Z,28.52
2023-05-13T12:10:09.304Z,28.68
2023-05-13T12:12:40.434Z,29.00
2023-05-13T12:15:11.644Z,29.09
2023-05-13T12:17:39.203Z,29.20
2023-05-13T12:20:10.761Z,29.94
2023-05-13T12:22:43.886Z,30.41
2023-05-13T12:25:40.743Z,30.09
2023-05-13T12:28:24.594Z,30.57
2023-05-13T12:30:59.615Z,30.82
2023-05-13T12:33:27.560Z,30.68
2023-05-13T12:36:25.495Z,30.93
2023-05-13T12:39:05.057Z,30.79
2023-05-13T12:41:35.064Z,30.82
2023-05-13T12:44:15.664Z,30.96
2023-05-13T12:47:01.852Z,30.58
2023-05-13T12:49:29.142Z,31.16
2023-05-13T12:51:57.019Z,31.42
2023-05-13T12:54:24.112Z,30.15
2023-05-13T12:56:51.919Z,29.59
2023-05-13T12:59:19.220Z,30.04
2023-05-13T13:01:48.258Z,29.71
2023-05-13T13:04:16.916Z,29.21
2023-05-13T13:06:44.184Z,28.78
2023-05-13T13:09:11.198Z,28.44
2023-05-13T13:11:39.316Z,28.83
2023-05-13T13:14:06.594Z,28.51
2023-05-13T13:16:33.799Z,28.61
2023-05-13T13:19:02.034Z,28.04
2023-05-13T13:21:29.243Z,28.81
2023-05-13T13:23:56.299Z,28.88
2023-05-13T13:26:23.700Z,29.03
2023-05-13T13:28:50.839Z,29.50
2023-05-13T13:31:18.045Z,29.33
2023-05-13T13:33:45.128Z,29.19
2023-05-13T13:36:12.205Z,29.29
2023-05-13T13:38:39.252Z,29.05
2023-05-13T13:41:06.343Z,29.14
2023-05-13T13:43:33.450Z,28.60
2023-05-13T13:46:00.716Z,29.11
2023-05-13T13:48:27.830Z,29.39
2023-05-13T13:50:55.087Z,29.97
2023-05-13T13:53:22.550Z,30.52
2023-05-13T13:55:49.734Z,30.73
2023-05-13T13:58:16.870Z,30.89
2023-05-13T14:00:44.125Z,32.05
2023-05-13T14:03:11.598Z,31.88
2023-05-13T14:05:38.723Z,32.46
2023-05-13T14:08:06.456Z,32.64
2023-05-13T14:10:33.669Z,32.95
2023-05-13T14:13:00.795Z,33.15
2023-05-13T14:15:30.169Z,33.88
2023-05-13T14:17:57.886Z,34.45
2023-05-13T14:20:25.143Z,34.80
2023-05-13T14:22:52.300Z,34.28
2023-05-13T14:25:19.427Z,35.29
2023-05-13T14:27:46.519Z,34.92
2023-05-13T14:30:13.821Z,34.21
2023-05-13T14:32:45.122Z,34.45
2023-05-13T14:35:13.414Z,33.49
2023-05-13T14:37:41.445Z,33.62
2023-05-13T14:40:09.681Z,33.39
2023-05-13T14:42:36.836Z,33.86
2023-05-13T14:45:04.395Z,34.00
2023-05-13T14:47:31.656Z,33.35
2023-05-13T14:49:58.900Z,32.83
2023-05-13T14:52:26.035Z,33.35
2023-05-13T14:54:54.039Z,32.57
2023-05-13T14:57:21.326Z,33.20
2023-05-13T14:59:48.414Z,33.30
2023-05-13T15:02:17.211Z,33.50
2023-05-13T15:04:44.571Z,33.15
2023-05-13T15:07:11.641Z,33.57
2023-05-13T15:09:38.837Z,33.45
2023-05-13T15:12:06.727Z,33.43
2023-05-13T15:14:33.756Z,33.68
2023-05-13T15:17:00.922Z,33.80
2023-05-13T15:19:28.086Z,33.93
2023-05-13T15:21:55.118Z,33.76
2023-05-13T15:24:22.173Z,33.42
2023-05-13T15:26:50.588Z,33.75
2023-05-13T15:29:17.892Z,33.46
2023-05-13T15:31:44.981Z,33.51
2023-05-13T15:34:12.067Z,33.69
2023-05-13T15:36:39.127Z,33.89
2023-05-13T15:39:06.717Z,34.23
2023-05-13T15:41:33.729Z,34.75
2023-05-13T15:44:00.803Z,35.32
2023-05-13T15:46:28.034Z,35.14
2023-05-13T15:48:55.511Z,35.28
2023-05-13T15:51:22.716Z,35.40
2023-05-13T15:53:49.752Z,35.78
2023-05-13T15:56:16.865Z,35.10
2023-05-13T15:58:43.897Z,34.80
2023-05-13T16:01:11.182Z,35.42
2023-05-13T16:03:38.680Z,34.96
2023-05-13T16:06:06.308Z,34.52
2023-05-13T16:08:33.421Z,33.94
2023-05-13T16:11:00.694Z,34.14
2023-05-13T16:13:30.848Z,34.38
2023-05-13T16:15:58.215Z,34.42
2023-05-13T16:18:25.350Z,34.97
2023-05-13T16:20:52.764Z,35.28
2023-05-13T16:23:19.826Z,35.61
2023-05-13T16:25:47.388Z,35.43
2023-05-13T16:28:14.443Z,35.52
2023-05-13T16:30:42.633Z,35.84
2023-05-13T16:33:09.936Z,36.88
2023-05-13T16:35:37.146Z,36.78
2023-05-13T16:38:04.175Z,37.66
2023-05-13T16:40:31.328Z,37.63
2023-05-13T16:43:01.682Z,38.09
2023-05-13T16:45:30.942Z,38.56
2023-05-13T16:47:58.083Z,38.94
2023-05-13T16:50:25.369Z,38.68
2023-05-13T16:52:54.437Z,39.45
2023-05-13T16:55:22.552Z,40.43
2023-05-13T16:57:49.696Z,41.06
2023-05-13T17:00:17.238Z,41.27
2023-05-13T17:02:44.636Z,41.22
2023-05-13T17:05:11.897Z,41.71
2023-05-13T17:07:39.628Z,41.87
2023-05-13T17:10:07.631Z,41.76
2023-05-13T17:12:34.783Z,41.83
2023-05-13T17:15:01.855Z,41.83
2023-05-13T17:17:29.035Z,41.85
2023-05-13T17:19:56.297Z,41.72
2023-05-13T17:22:23.523Z,42.21
2023-05-13T17:24:50.718Z,42.21
2023-05-13T17:27:17.821Z,42.24
2023-05-13T17:29:44.989Z,42.20
2023-05-13T17:32:12.045Z,42.56
2023-05-13T17:34:39.203Z,42.63
2023-05-13T17:37:06.356Z,42.96
2023-05-13T17:39:33.440Z,42.92
2023-05-13T17:42:00.618Z,43.30
2023-05-13T17:44:27.761Z,42.75
2023-05-13T17:46:55.341Z,42.79
2023-05-13T17:49:22.410Z,42.85
2023-05-13T17:51:49.647Z,42.76
2023-05-13T17:54:16.687Z,42.93
2023-05-13T17:56:43.750Z,42.83
2023-05-13T17:59:11.837Z,43.05
2023-05-13T18:01:39.015Z,42.71
2023-05-13T18:04:06.160Z,42.79
2023-05-13T18:06:33.274Z,42.51
2023-05-13T18:09:00.323Z,42.85
2023-05-13T18:11:27.360Z,42.51
2023-05-13T18:13:54.490Z,42.53
2023-05-13T18:16:21.597Z,42.32
2023-05-13T18:18:48.821Z,42.54
2023-05-13T18:21:16.116Z,42.85
2023-05-13T18:23:45.853Z,42.81
2023-05-13T18:26:12.926Z,42.76
2023-05-13T18:28:41.618Z,42.74
2023-05-13T18:31:08.766Z,42.69
2023-05-13T18:33:36.025Z,42.78
2023-05-13T18:36:03.091Z,42.73
2023-05-13T18:38:30.179Z,42.57
2023-05-13T18:41:01.556Z,42.76
2023-05-13T18:43:29.920Z,42.72
2023-05-13T18:45:57.977Z,42.90
2023-05-13T18:48:28.395Z,42.72
2023-05-13T18:50:55.438Z,42.63
2023-05-13T18:53:22.732Z,43.16
2023-05-13T18:55:49.889Z,42.90
2023-05-13T18:58:17.361Z,43.05
2023-05-13T19:00:44.520Z,42.83
2023-05-13T19:03:11.808Z,43.13
2023-05-13T19:05:39.195Z,43.59
2023-05-13T19:08:08.035Z,43.66
2023-05-13T19:10:40.047Z,43.96
2023-05-13T19:13:07.899Z,44.33
2023-05-13T19:15:35.387Z,44.72
2023-05-13T19:18:02.697Z,45.08
2023-05-13T19:20:30.266Z,45.58
2023-05-13T19:22:57.576Z,45.95
2023-05-13T19:25:24.660Z,46.30
2023-05-13T19:27:51.820Z,46.79
2023-05-13T19:30:18.974Z,47.00
2023-05-13T19:32:46.206Z,47.30
2023-05-13T19:35:13.368Z,47.59
2023-05-13T19:37:40.769Z,47.74
2023-05-13T19:40:08.681Z,47.96
2023-05-13T19:42:35.906Z,48.20
2023-05-13T19:45:06.336Z,48.50
2023-05-13T19:47:34.767Z,48.85
2023-05-13T19:50:02.179Z,49.09
2023-05-13T19:52:29.445Z,49.30
2023-05-13T19:54:56.536Z,49.65
2023-05-13T19:57:23.508Z,49.34
2023-05-13T19:59:50.657Z,49.92
2023-05-13T20:02:17.830Z,49.97
2023-05-13T20:04:45.119Z,50.01
2023-05-13T20:07:12.144Z,50.21
2023-05-13T20:09:39.207Z,50.32
2023-05-13T20:12:06.486Z,50.61
2023-05-13T20:14:56.157Z,50.87
2023-05-13T20:17:23.555Z,50.92
2023-05-13T20:19:54.143Z,50.84
2023-05-13T20:22:21.871Z,51.14
2023-05-13T20:24:51.060Z,51.31
2023-05-13T20:27:18.780Z,51.53
2023-05-13T20:29:48.193Z,51.59
2023-05-13T20:32:24.370Z,51.93
2023-05-13T20:34:52.668Z,51.93
2023-05-13T20:37:23.410Z,51.99
2023-05-13T20:39:51.428Z,52.23
2023-05-13T20:42:20.256Z,52.48
2023-05-13T20:44:47.455Z,52.43
2023-05-13T20:47:14.833Z,52.16
2023-05-13T20:49:43.933Z,52.22
2023-05-13T20:52:11.670Z,51.86
2023-05-13T20:54:39.094Z,51.46
2023-05-13T20:57:06.330Z,51.55
2023-05-13T20:59:33.675Z,51.53
2023-05-13T21:02:00.818Z,51.61
2023-05-13T21:04:28.322Z,51.53
2023-05-13T21:06:55.320Z,51.54
2023-05-13T21:09:22.375Z,51.51
2023-05-13T21:11:49.366Z,51.60
2023-05-13T21:14:16.427Z,51.84
2023-05-13T21:16:43.563Z,51.82
2023-05-13T21:19:23.179Z,51.78
2023-05-13T21:21:50.531Z,51.94
2023-05-13T21:24:18.965Z,51.93
2023-05-13T21:26:46.649Z,51.91
2023-05-13T21:29:13.791Z,51.71
2023-05-13T21:31:41.173Z,51.58
2023-05-13T21:34:08.436Z,51.46
2023-05-13T21:36:38.852Z,52.01
2023-05-13T21:39:07.736Z,51.94
2023-05-13T21:41:35.826Z,51.65
2023-05-13T21:44:02.872Z,51.76
2023-05-13T21:46:29.979Z,52.02
2023-05-13T21:48:58.373Z,52.36
2023-05-13T21:51:25.661Z,52.35
2023-05-13T21:53:52.756Z,52.55
2023-05-13T21:56:19.919Z,52.67
2023-05-13T21:58:47.102Z,52.72
2023-05-13T22:01:14.183Z,52.85
2023-05-13T22:03:42.022Z,52.64
2023-05-13T22:06:09.096Z,52.64
2023-05-13T22:08:36.127Z,52.79
2023-05-13T22:11:03.185Z,52.67
2023-05-13T22:13:30.303Z,52.43
2023-05-13T22:15:57.381Z,52.48
2023-05-13T22:18:24.738Z,52.71
2023-05-13T22:20:52.072Z,53.02
2023-05-13T22:23:19.100Z,52.81
2023-05-13T22:25:46.169Z,53.15
2023-05-13T22:28:13.352Z,53.30
2023-05-13T22:30:40.472Z,53.22
2023-05-13T22:33:07.605Z,53.14
2023-05-13T22:35:36.574Z,53.42
2023-05-13T22:38:04.450Z,53.46
2023-05-13T22:40:31.573Z,53.72
2023-05-13T22:42:58.644Z,53.94
2023-05-13T22:45:25.741Z,54.10
2023-05-13T22:47:52.956Z,54.18
2023-05-13T22:50:20.291Z,54.38
2023-05-13T22:52:47.345Z,54.39
2023-05-13T22:55:14.517Z,54.33
2023-05-13T22:57:41.609Z,54.55
2023-05-13T23:00:09.620Z,54.38
2023-05-13T23:02:36.742Z,54.65
2023-05-13T23:05:04.296Z,54.46
2023-05-13T23:07:31.384Z,54.72
2023-05-13T23:09:58.463Z,54.65
2023-05-13T23:12:26.558Z,54.79
2023-05-13T23:14:53.608Z,54.70
2023-05-13T23:17:20.797Z,54.63
2023-05-13T23:19:47.889Z,54.79
2023-05-13T23:22:14.895Z,54.82
2023-05-13T23:24:42.091Z,54.48
2023-05-13T23:27:09.196Z,54.35
2023-05-13T23:29:36.360Z,54.03
2023-05-13T23:32:05.892Z,53.99
2023-05-13T23:34:33.962Z,54.01
2023-05-13T23:37:00.982Z,53.65
2023-05-13T23:39:28.060Z,53.78
2023-05-13T23:41:55.113Z,53.72
2023-05-13T23:44:22.206Z,53.52
2023-05-13T23:46:49.691Z,53.52
2023-05-13T23:49:17.704Z,53.44
2023-05-13T23:51:44.743Z,53.31
2023-05-13T23:54:11.882Z,53.05
2023-05-13T23:56:38.903Z,52.45
2023-05-13T23:59:06.013Z,52.49
